首页
METAR-TAF:

METAR-TAF

机场 :

莫林, 伊利诺伊州, 美国

纬度: 41-27-05N, 经度: 090-30-53W, 海拔: 179米

当前天气观测

该预报发布于10分钟前的18:34 UTC
风速9节,风向东转东北
温度 17°C
湿度 88%
气压 1000 hPa
能見度: 16.1公里
多云层高于1000英尺
多云层高于11000英尺

METAR: KMLI 281834Z 06009KT 10SM BKN010 BKN110 17/15 A2954 RMK AO2 T01720150

时间: 13:44 (18:44 UTC)

预报

该预报发布于1小时和24分钟前的17:20 UTC
预报有效从28日的 18点(UTC)到 29日的 18点(UTC)
风速10节,风向东转东南
能見度: 10公里
多云层高于600英尺
从 28日的 1900点(UTC)
风速12节,风向东南,有时为20节阵风
能見度: 10公里
散云层高于1000英尺
多云层高于20000英尺
从 28日的 2000点(UTC)
风速15节,风向南转南东,有时为23节阵风
能見度: 10公里
多云层高于3500英尺
短暂存在
从 28日的 20点(UTC)到 28日的 24点(UTC)
风速30节,风向多变,有时为45节阵风
能見度: 0.8公里
多云层高于500英尺, 积雨云.
雷暴, 雨
从 29日的 0100点(UTC)
风速15节,风向南转西南,有时为23节阵风
能見度: 10公里
多云层高于4000英尺
从 29日的 0900点(UTC)
风速23节,风向西转西南,有时为32节阵风
能見度: 10公里
多云层高于1500英尺

TAF: KMLI 281720Z 2818/2918 12010KT P6SM BKN006 FM281900 13012G20KT P6SM SCT010 BKN200 FM282000 16015G23KT P6SM BKN035 TEMPO 2820/2824 VRB30G45KT 1/2SM TSRA BKN005CB FM290100 20015G23KT P6SM BKN040 FM290900 25023G32KT P6SM BKN015

超过4000个机场的气象观测和天气预报(METAR&TAF报告)。

可查询的气象台以黄色和红色小点在地图上表示。

将鼠标移到小点上方,可查看气象台名称。

然后点击查看天气观测和预报。

如需切换地图:点击带黑十字的绿色按钮放大地图;点击带横线的绿色按钮缩小地图;或者点击绿色箭头查看邻近地区的地图。


METAR-TAF: